Data for 01/03/2010

Time Sea-Level Adjusted Pressure Absolute Pressure Temperature Relative Humidity Dew Point   
(mb) (inHg) (mb) (inHg) (C) (F) (%) (C) (F)
00:05 1024 30.24 853 25.19 -0.2 31.6 84 -2.5 27.4
00:10 1024 30.24 853 25.19 -0.1 31.8 83 -2.6 27.4
00:15 1024 30.24 853 25.19 -0 32 82 -2.7 27.1
00:20 1024 30.24 853 25.19 0.1 32.2 82 -2.6 27.2
00:25 1024 30.24 853 25.19 0.2 32.3 81 -2.7 27.1
00:30 1024 30.24 853 25.19 0.2 32.4 80 -2.8 27
00:35 1024 30.24 853 25.19 0.2 32.3 81 -2.8 27
00:40 1024 30.24 853 25.19 -0.1 31.8 82 -2.8 26.9
00:45 1024 30.24 853 25.19 -0.2 31.6 83 -2.8 27
00:50 1024 30.24 853 25.19 -0.4 31.3 84 -2.8 27
00:55 1024 30.24 853 25.19 -0.4 31.3 85 -2.6 27.3
01:00 1024 30.24 853 25.19 -0.5 31.2 84 -2.9 26.9
01:05 1024 30.24 853 25.19 -0.4 31.3 84 -2.8 27
01:10 1024 30.24 853 25.19 -0.4 31.3 84 -2.7 27.2
01:15 1024 30.24 853 25.19 -0.4 31.3 85 -2.6 27.3
01:20 1024 30.24 853 25.19 -0.4 31.4 85 -2.6 27.4
01:25 1024 30.24 853 25.19 -0.4 31.4 85 -2.5 27.4
01:30 1024 30.24 853 25.19 -0.4 31.4 85 -2.5 27.4
01:35 1024 30.24 853 25.19 -0.4 31.4 85 -2.5 27.5
01:40 1024 30.24 853 25.19 -0.3 31.4 85 -2.5 27.5
01:45 1024 30.24 853 25.19 -0.4 31.4 86 -2.5 27.5
01:50 1024 30.24 853 25.19 -0.3 31.4 85 -2.5 27.5
01:55 1024 30.24 853 25.19 -0.4 31.4 85 -2.5 27.4
02:00 1024 30.24 853 25.19 -0.5 31.2 85 -2.6 27.3
02:05 1024 30.24 853 25.19 -0.5 31.2 85 -2.6 27.2
02:10 1024 30.24 853 25.19 -0.7 30.8 86 -2.7 27.1
02:15 1024 30.24 853 25.19 -0.8 30.6 86 -2.8 26.9
02:20 1024 30.24 853 25.19 -0.8 30.6 86 -2.8 26.9
02:25 1024 30.24 853 25.19 -0.8 30.5 86 -2.9 26.9
02:30 1024 30.24 853 25.19 -0.9 30.5 86 -2.9 26.8
02:35 1024 30.24 853 25.19 -0.8 30.5 86 -2.9 26.7
02:40 1024 30.24 853 25.19 -0.8 30.5 86 -2.9 26.8
02:45 1024 30.24 853 25.19 -0.7 30.7 85 -3 26.6
02:50 1024 30.24 853 25.19 -0.7 30.8 84 -3 26.6
02:55 1024 30.24 853 25.19 -0.6 30.9 84 -3 26.6
03:00 1024 30.24 853 25.19 -0.6 30.9 84 -3 26.7
03:05 1024 30.24 853 25.19 -0.6 31 84 -2.9 26.7
03:10 1024 30.24 853 25.19 -0.6 30.9 84 -2.9 26.7
03:15 1024 30.24 853 25.19 -0.5 31 84 -2.9 26.7
03:20 1024 30.24 853 25.19 -0.5 31.1 83 -3 26.7
03:25 1024 30.24 853 25.19 -0.5 31.1 84 -2.9 26.8
03:30 1024 30.24 853 25.19 -0.5 31.1 84 -3 26.7
03:35 1024 30.24 853 25.19 -0.5 31 84 -3 26.6
03:40 1024 30.24 854 25.22 -0.4 31.2 83 -3 26.6
03:45 1024 30.24 854 25.22 -0.4 31.2 83 -3 26.7
03:50 1024 30.24 854 25.22 -0.5 31.1 83 -3 26.5
03:55 1024 30.24 854 25.22 -0.5 31.1 83 -3.1 26.5
04:00 1024 30.24 854 25.22 -0.4 31.3 82 -3.1 26.5
04:05 1024 30.24 854 25.22 -0.4 31.2 82 -3 26.5
04:10 1024 30.24 854 25.22 -0.6 31 84 -3 26.7
04:15 1025 30.27 854 25.22 -0.6 31 83 -3 26.6
04:20 1025 30.27 854 25.22 -0.5 31 83 -3 26.6
04:25 1025 30.27 854 25.22 -0.6 30.9 83 -3.1 26.5
04:30 1025 30.27 854 25.22 -0.6 31 83 -3.1 26.5
04:35 1025 30.27 854 25.22 -0.5 31 82 -3.2 26.3
04:40 1025 30.27 854 25.22 -0.4 31.2 82 -3.1 26.5
04:45 1025 30.27 854 25.22 -0.3 31.4 82 -3.1 26.4
04:50 1025 30.27 854 25.22 -0.2 31.7 81 -3 26.7
04:55 1025 30.27 854 25.22 -0.3 31.5 81 -3.2 26.3
05:00 1025 30.27 854 25.22 -1 30.1 84 -3.5 25.8
05:05 1025 30.27 854 25.22 -1.1 30 84 -3.5 25.6
05:10 1025 30.27 854 25.22 -0.9 30.4 82 -3.5 25.7
05:15 1025 30.27 854 25.22 -0.9 30.3 82 -3.6 25.6
05:20 1025 30.27 854 25.22 -1.1 30 84 -3.4 25.8
05:25 1025 30.27 854 25.22 -1.3 29.7 85 -3.5 25.8
05:30 1025 30.27 854 25.22 -1.3 29.6 86 -3.4 25.8
05:35 1025 30.27 854 25.22 -1.3 29.7 85 -3.5 25.8
05:40 1025 30.27 854 25.22 -1.2 29.8 84 -3.6 25.5
05:45 1025 30.27 854 25.22 -1.3 29.6 83 -3.9 25
05:50 1025 30.27 854 25.22 -1.4 29.5 83 -3.9 24.9
05:55 1025 30.27 854 25.22 -1.4 29.4 83 -4 24.8
06:00 1025 30.27 854 25.22 -1.4 29.5 82 -4.1 24.6
06:05 1025 30.27 854 25.22 -1.4 29.4 82 -4.1 24.7
06:10 1025 30.27 854 25.22 -1.4 29.5 82 -4.1 24.6
06:15 1025 30.27 854 25.22 -1.4 29.6 82 -4 24.8
06:20 1025 30.27 854 25.22 -1.3 29.7 81 -4.1 24.7
06:25 1025 30.27 854 25.22 -1.3 29.7 81 -4.2 24.4
06:30 1025 30.27 854 25.22 -1.3 29.7 80 -4.2 24.4
06:35 1025 30.27 854 25.22 -1.2 29.8 80 -4.3 24.3
06:40 1025 30.27 854 25.22 -1.2 29.8 79 -4.4 24.1
06:45 1025 30.27 854 25.22 -1.2 29.9 80 -4.1 24.6
06:50 1025 30.27 854 25.22 -1.5 29.3 82 -4.2 24.5
06:55 1025 30.27 854 25.22 -1.7 28.9 84 -4.1 24.6
07:00 1025 30.27 854 25.22 -1.5 29.2 83 -4.1 24.6
07:05 1025 30.27 854 25.22 -1.4 29.5 83 -4 24.9
07:10 1025 30.27 854 25.22 -1.4 29.6 83 -3.9 25
07:15 1025 30.27 854 25.22 -1.4 29.5 83 -3.9 25
07:20 1025 30.27 854 25.22 -1.3 29.7 83 -3.9 25
07:25 1025 30.27 854 25.22 -1.3 29.7 82 -3.9 24.9
07:30 1025 30.27 854 25.22 -1.2 29.8 82 -4 24.8
07:35 1025 30.27 854 25.22 -1.5 29.3 83 -4.1 24.7
07:40 1025 30.27 854 25.22 -1.7 28.9 84 -4.1 24.7
07:45 1025 30.27 854 25.22 -1.9 28.5 85 -4.2 24.5
07:50 1025 30.27 854 25.22 -2.1 28.2 85 -4.3 24.2
07:55 1025 30.27 854 25.22 -2.3 27.9 85 -4.4 24
08:00 1025 30.27 854 25.22 -2.3 27.9 85 -4.4 24
08:05 1025 30.27 854 25.22 -2 28.4 83 -4.5 23.9
08:10 1025 30.27 854 25.22 -1.6 29.1 82 -4.3 24.2
08:15 1025 30.27 855 25.25 -1.4 29.4 82 -4.2 24.4
08:20 1025 30.27 855 25.25 -1.3 29.6 81 -4.2 24.5
08:25 1025 30.27 855 25.25 -1.2 29.9 80 -4.3 24.3
08:30 1025 30.27 855 25.25 -1.1 30.1 80 -4.2 24.5
08:35 1025 30.27 855 25.25 -1.2 29.9 80 -4.2 24.4
08:40 1025 30.27 855 25.25 -1.2 29.8 80 -4.3 24.3
08:45 1025 30.27 855 25.25 -1 30.2 79 -4.2 24.5
08:50 1025 30.27 855 25.25 -1.1 30.1 79 -4.2 24.5
08:55 1026 30.3 855 25.25 -1.3 29.7 80 -4.3 24.3
09:00 1026 30.3 855 25.25 -1.4 29.5 82 -4.2 24.5
09:05 1026 30.3 855 25.25 -1.4 29.4 82 -4 24.7
09:10 1026 30.3 855 25.25 -1.3 29.6 82 -3.9 24.9
09:15 1026 30.3 855 25.25 -1.2 29.9 82 -3.9 25
09:20 1026 30.3 855 25.25 -1 30.2 81 -3.9 25
09:25 1026 30.3 855 25.25 -0.8 30.5 80 -3.8 25.2
09:30 1026 30.3 855 25.25 -0.7 30.7 80 -3.7 25.3
09:35 1026 30.3 855 25.25 -0.7 30.8 80 -3.7 25.3
09:40 1026 30.3 855 25.25 -0.6 30.9 79 -3.7 25.3
09:45 1026 30.3 855 25.25 -0.6 30.9 80 -3.7 25.4
09:50 1026 30.3 855 25.25 -0.6 30.9 80 -3.7 25.4
09:55 1026 30.3 855 25.25 -0.6 30.9 80 -3.7 25.4
10:00 1026 30.3 855 25.25 -0.4 31.3 79 -3.7 25.4
10:05 1026 30.3 855 25.25 -0.3 31.4 78 -3.7 25.4
10:10 1026 30.3 855 25.25 -0 32 76 -3.7 25.4
10:15 1026 30.3 855 25.25 0.3 32.5 75 -3.6 25.5
10:20 1026 30.3 855 25.25 0.5 32.8 74 -3.7 25.3
10:25 1026 30.3 855 25.25 0.7 33.2 73 -3.6 25.6
10:30 1026 30.3 855 25.25 1 33.8 72 -3.5 25.8
10:35 1026 30.3 855 25.25 1.1 33.9 70 -3.8 25.1
10:40 1026 30.3 855 25.25 1.2 34.2 69 -3.8 25.2
10:45 1026 30.3 855 25.25 1.4 34.6 68 -3.9 25
10:50 1026 30.3 855 25.25 1.4 34.6 68 -3.7 25.3
10:55 1026 30.3 855 25.25 1.6 34.9 67 -3.9 25.1
11:00 1026 30.3 855 25.25 1.6 34.9 66 -4 24.8
11:05 1026 30.3 855 25.25 1.7 35.1 66 -3.9 25
11:10 1026 30.3 855 25.25 1.8 35.2 64 -4.3 24.3
11:15 1026 30.3 855 25.25 1.7 35.1 65 -4.2 24.5
11:20 1026 30.3 855 25.25 2.2 36 62 -4.4 24.1
11:25 1025 30.27 855 25.25 2.5 36.6 61 -4.3 24.2
11:30 1025 30.27 855 25.25 3.1 37.5 57 -4.6 23.8
11:35 1025 30.27 855 25.25 3.5 38.3 58 -4 24.9
11:40 1025 30.27 854 25.22 3.8 38.8 55 -4.3 24.2
11:45 1025 30.27 854 25.22 3.7 38.7 57 -4 24.7
11:50 1025 30.27 854 25.22 4.1 39.5 56 -3.8 25.1
11:55 1025 30.27 854 25.22 4.3 39.7 55 -4.1 24.7
12:00 1025 30.27 854 25.22 4.2 39.6 57 -3.5 25.7
12:05 1025 30.27 854 25.22 4.1 39.5 58 -3.3 26
12:10 1025 30.27 854 25.22 3.8 38.8 60 -3.4 26
12:15 1025 30.27 854 25.22 3.6 38.5 60 -3.5 25.6
12:20 1025 30.27 854 25.22 3 37.3 61 -3.8 25.2
12:25 1025 30.27 854 25.22 3.3 37.9 59 -3.9 24.9
12:30 1025 30.27 854 25.22 3.5 38.3 58 -3.9 25
12:35 1025 30.27 854 25.22 3.4 38.2 58 -4.1 24.6
12:40 1025 30.27 854 25.22 3.4 38.1 58 -4.1 24.7
12:45 1025 30.27 854 25.22 3.1 37.6 61 -3.6 25.5
12:50 1025 30.27 854 25.22 2.8 37 62 -3.9 25
12:55 1025 30.27 854 25.22 1.9 35.5 67 -3.5 25.7
13:00 1025 30.27 854 25.22 2 35.7 62 -4.6 23.7
13:05 1025 30.27 854 25.22 2.8 37 60 -4.2 24.5
13:10 1025 30.27 854 25.22 3 37.4 60 -3.9 24.9
13:15 1025 30.27 854 25.22 3.3 37.9 57 -4.4 24.1
13:20 1025 30.27 854 25.22 3.2 37.7 58 -4.4 24.1
13:25 1025 30.27 854 25.22 2.6 36.7 62 -4 24.8
13:30 1025 30.27 854 25.22 1.7 35 65 -4.2 24.4
13:35 1024 30.24 854 25.22 1.5 34.8 65 -4.4 24
13:40 1024 30.24 854 25.22 1.2 34.2 67 -4.4 24.2
13:45 1024 30.24 854 25.22 1.1 34 66 -4.5 23.9
13:50 1024 30.24 854 25.22 1.2 34.2 65 -4.5 23.8
13:55 1024 30.24 854 25.22 1.6 35 63 -4.6 23.8
14:00 1024 30.24 854 25.22 1.9 35.4 63 -4.4 24
14:05 1024 30.24 854 25.22 1.9 35.3 64 -4.2 24.5
14:10 1024 30.24 854 25.22 1.4 34.6 65 -4.4 24
14:15 1024 30.24 854 25.22 1.3 34.4 67 -4.2 24.5
14:20 1024 30.24 854 25.22 1 33.9 66 -4.5 23.9
14:25 1024 30.24 853 25.19 1.3 34.4 66 -4.3 24.2
14:30 1024 30.24 853 25.19 1.3 34.4 65 -4.5 23.9
14:35 1024 30.24 854 25.22 1.4 34.6 65 -4.5 23.9
14:40 1024 30.24 853 25.19 1.6 34.8 64 -4.5 24
14:45 1024 30.24 853 25.19 1.7 35.1 63 -4.5 23.8
14:50 1024 30.24 853 25.19 1.7 35 65 -4.2 24.5
14:55 1024 30.24 853 25.19 0.5 33 69 -4.5 23.9
15:00 1024 30.24 853 25.19 -0.1 31.9 72 -4.5 23.8
15:05 1024 30.24 853 25.19 -0.3 31.5 72 -4.7 23.6
15:10 1024 30.24 853 25.19 -0.4 31.3 73 -4.7 23.6
15:15 1024 30.24 853 25.19 -0.1 31.9 71 -4.7 23.5
15:20 1024 30.24 853 25.19 0.2 32.4 69 -4.8 23.3
15:25 1024 30.24 853 25.19 0.7 33.2 68 -4.6 23.7
15:30 1024 30.24 853 25.19 1 33.7 67 -4.6 23.8
15:35 1024 30.24 853 25.19 1.2 34.2 65 -4.6 23.7
15:40 1024 30.24 853 25.19 1.3 34.4 64 -4.7 23.5
15:45 1024 30.24 853 25.19 1.1 34 65 -4.8 23.3
15:50 1024 30.24 853 25.19 1.4 34.5 63 -4.8 23.3
15:55 1024 30.24 853 25.19 1.7 35 61 -5 23
16:00 1024 30.24 854 25.22 1.8 35.2 62 -4.6 23.6
16:05 1024 30.24 854 25.22 1.5 34.8 62 -5 23.1
16:10 1024 30.24 854 25.22 1.5 34.6 62 -5 23
16:15 1024 30.24 854 25.22 1.3 34.3 64 -4.9 23.2
16:20 1024 30.24 854 25.22 0.7 33.2 66 -5 23
16:25 1024 30.24 853 25.19 0.1 32.2 68 -5 23
16:30 1024 30.24 853 25.19 -0.3 31.5 69 -5.2 22.6
16:35 1024 30.24 854 25.22 -0.5 31 70 -5.4 22.3
16:40 1024 30.24 853 25.19 -1 30.2 72 -5.5 22.2
16:45 1024 30.24 853 25.19 -1.4 29.5 72 -5.8 21.5
16:50 1024 30.24 853 25.19 -1.6 29.1 71 -6.1 20.9
16:55 1024 30.24 853 25.19 -1.7 29 71 -6.2 20.8
17:00 1024 30.24 854 25.22 -2 28.5 70 -6.7 20
17:05 1024 30.24 853 25.19 -1.7 28.9 68 -6.8 19.8
17:10 1024 30.24 853 25.19 -1.7 29 69 -6.6 20.1
17:15 1024 30.24 853 25.19 -1.4 29.4 69 -6.4 20.4
17:20 1024 30.24 854 25.22 -1.3 29.6 67 -6.7 19.9
17:25 1024 30.24 853 25.19 -1.3 29.6 67 -6.8 19.8
17:30 1024 30.24 853 25.19 -1.4 29.4 67 -6.7 19.9
17:35 1024 30.24 853 25.19 -1.4 29.4 66 -6.9 19.6
17:40 1024 30.24 854 25.22 -1.5 29.3 68 -6.6 20.2
17:45 1024 30.24 854 25.22 -1.6 29.1 68 -6.8 19.7
17:50 1024 30.24 854 25.22 -1.8 28.8 67 -7.1 19.2
17:55 1024 30.24 854 25.22 -1.8 28.8 67 -7.2 19.1
18:00 1024 30.24 854 25.22 -2 28.3 68 -7.1 19.1
18:05 1024 30.24 854 25.22 -2 28.4 68 -7.2 19.1
18:10 1024 30.24 854 25.22 -2 28.4 67 -7.3 18.8
18:15 1024 30.24 854 25.22 -1.9 28.5 67 -7.3 18.9
18:20 1024 30.24 854 25.22 -1.9 28.5 67 -7.3 18.9
18:25 1024 30.24 854 25.22 -1.9 28.6 67 -7.2 19
18:30 1024 30.24 854 25.22 -2.3 27.9 69 -7.1 19.2
18:35 1024 30.24 854 25.22 -2.7 27.1 72 -7.2 19.1
18:40 1024 30.24 854 25.22 -2.8 27 72 -7.2 19
18:45 1024 30.24 854 25.22 -2.8 27 72 -7.1 19.2
18:50 1025 30.27 854 25.22 -2.9 26.8 72 -7.2 19.1
18:55 1025 30.27 854 25.22 -2.8 27 71 -7.3 18.9
19:00 1025 30.27 854 25.22 -2.8 26.9 71 -7.3 18.8
19:05 1025 30.27 854 25.22 -2.9 26.8 71 -7.4 18.7
19:10 1025 30.27 854 25.22 -3 26.7 72 -7.4 18.7
19:15 1025 30.27 854 25.22 -3 26.6 71 -7.6 18.3
19:20 1025 30.27 854 25.22 -3 26.6 70 -7.7 18.1
19:25 1025 30.27 854 25.22 -2.7 27.1 68 -7.7 18.1
19:30 1025 30.27 854 25.22 -3.1 26.4 72 -7.5 18.5
19:35 1025 30.27 854 25.22 -3.3 26.1 70 -8.1 17.5
19:40 1025 30.27 854 25.22 -3.5 25.6 71 -8 17.6
19:45 1025 30.27 854 25.22 -3.3 26.1 72 -7.7 18.2
19:50 1025 30.27 854 25.22 -3.1 26.5 71 -7.6 18.3
19:55 1025 30.27 854 25.22 -3 26.6 69 -7.9 17.8
20:00 1025 30.27 854 25.22 -3 26.5 69 -7.9 17.8
20:05 1025 30.27 854 25.22 -3.2 26.2 69 -8.1 17.4
20:10 1025 30.27 854 25.22 -3 26.7 67 -8.2 17.2
20:15 1025 30.27 854 25.22 -2.9 26.8 67 -8.3 17.1
20:20 1025 30.27 854 25.22 -2.7 27.1 66 -8.2 17.3
20:25 1025 30.27 854 25.22 -2.7 27.1 67 -8 17.6
20:30 1025 30.27 854 25.22 -2.8 27 68 -7.9 17.7
20:35 1025 30.27 854 25.22 -3.2 26.2 69 -8.1 17.3
20:40 1025 30.27 854 25.22 -3.3 26.1 69 -8.2 17.2
20:45 1025 30.27 854 25.22 -3 26.5 67 -8.3 17.1
20:50 1025 30.27 854 25.22 -3 26.6 67 -8.3 17.1
20:55 1025 30.27 854 25.22 -3.2 26.2 68 -8.4 16.9
21:00 1025 30.27 854 25.22 -3.5 25.7 68 -8.5 16.6
21:05 1025 30.27 854 25.22 -3.9 24.9 70 -8.7 16.3
21:10 1025 30.27 854 25.22 -4.2 24.5 70 -8.9 16
21:15 1025 30.27 854 25.22 -4 24.8 68 -9 15.9
21:20 1025 30.27 854 25.22 -3.8 25.1 67 -9 15.8
21:25 1025 30.27 854 25.22 -3.3 26 65 -9 15.8
21:30 1025 30.27 854 25.22 -3.2 26.2 65 -8.9 16
21:35 1025 30.27 854 25.22 -3.4 25.8 66 -8.9 16
21:40 1025 30.27 854 25.22 -3.7 25.4 66 -9 15.8
21:45 1025 30.27 854 25.22 -3.9 24.9 67 -9.1 15.6
21:50 1025 30.27 854 25.22 -4 24.9 67 -9.2 15.4
21:55 1025 30.27 854 25.22 -3.9 25 66 -9.4 15.1
22:00 1025 30.27 854 25.22 -4 24.9 67 -9.2 15.5
22:05 1025 30.27 854 25.22 -3.8 25.2 65 -9.5 14.9
22:10 1025 30.27 854 25.22 -3.9 25 64 -9.7 14.6
22:15 1025 30.27 854 25.22 -3.9 25 66 -9.3 15.2
22:20 1025 30.27 854 25.22 -3.8 25.1 67 -9.1 15.6
22:25 1025 30.27 854 25.22 -4.1 24.7 67 -9.2 15.4
22:30 1025 30.27 854 25.22 -4.1 24.6 67 -9.3 15.2
22:35 1025 30.27 854 25.22 -4.2 24.5 67 -9.3 15.2
22:40 1025 30.27 854 25.22 -4.2 24.4 67 -9.5 15
22:45 1025 30.27 854 25.22 -4.3 24.3 67 -9.4 15.1
22:50 1025 30.27 854 25.22 -4.4 24.1 69 -9.3 15.3
22:55 1025 30.27 854 25.22 -4.4 24 68 -9.4 15.1
23:00 1025 30.27 854 25.22 -4.6 23.8 68 -9.6 14.8
23:05 1025 30.27 854 25.22 -4.7 23.5 69 -9.7 14.6
23:10 1025 30.27 854 25.22 -4.4 24.1 67 -9.6 14.6
23:15 1025 30.27 854 25.22 -4.3 24.3 67 -9.5 14.9
23:20 1025 30.27 854 25.22 -4.4 24.2 68 -9.5 14.9
23:25 1025 30.27 854 25.22 -4.3 24.2 67 -9.6 14.8
23:30 1025 30.27 854 25.22 -4.4 24 68 -9.5 14.9
23:35 1025 30.27 854 25.22 -4.5 23.9 68 -9.5 15
23:40 1025 30.27 854 25.22 -4.5 23.9 68 -9.5 14.9
23:45 1025 30.27 854 25.22 -4.6 23.7 68 -9.6 14.7
23:50 1025 30.27 854 25.22 -4.6 23.7 68 -9.6 14.7
23:55 1025 30.27 854 25.22 -4.5 24 68 -9.6 14.8
24:00 1025 30.27 854 25.22 -4.3 24.3 67 -9.5 14.8